Latest Weather Observations for Strathalbyn

IDS60901

Issued at 7:05 pm CDT Friday 28 November 2014 (issued every 10 minutes, with the page automatically refreshed every 10 minutes)

About weather observations | Map of Adelaide area stations | Latest observations for Adelaide area | Other Formats
Station Details ID: 024580 Name: STRATHALBYN RACECOURSE Lat: -35.28 Lon: 138.89 Height: 58.0 m
Data from the previous 72 hours. | See also: Recent months at Strathalbyn
Date/Time
CDT
Tmp

°C
App
Tmp
°C
Dew
Point
°C
Rel
Hum
%
Delta-T

°C
Wind Press
QNH
hPa
Press
MSL
hPa
Rain
since
9 am
mm
Dir
 
Spd
km/h
Gust
km/h
Spd
kts
Gust
kts
28/07:00pm 19.7 15.2 8.4 48 5.9 SSW 22 28 12 15 1016.2 - 0.0
28/06:30pm 21.2 16.5 7.8 42 7.0 SSW 22 30 12 16 1015.8 - 0.0
28/06:00pm 22.7 18.1 8.0 39 7.7 SSW 22 30 12 16 1015.7 1015.7 0.0
28/05:30pm 23.0 18.2 9.0 41 7.5 SSW 24 30 13 16 1015.8 - 0.0
28/05:00pm 24.3 19.4 8.3 36 8.5 SSW 24 32 13 17 1015.7 - 0.0
28/04:30pm 24.5 19.5 9.6 39 8.2 SSW 26 35 14 19 1015.8 - 0.0
28/04:00pm 25.5 19.2 9.7 37 8.7 SSW 33 43 18 23 1015.8 - 0.0
28/03:30pm 28.5 23.3 3.4 20 12.6 SE 20 32 11 17 1015.8 - 0.0
28/03:00pm 28.6 23.4 2.7 19 12.9 SSE 19 28 10 15 1015.9 1015.9 0.0
28/02:30pm 29.0 24.8 3.8 20 12.8 SE 15 30 8 16 1016.1 - 0.0
28/02:00pm 29.1 25.5 5.2 22 12.4 SE 13 24 7 13 1016.6 - 0.0
28/01:30pm 27.5 23.9 5.1 24 11.5 ESE 13 20 7 11 1017.1 - 0.0
28/01:00pm 27.1 24.0 5.4 25 11.2 ESE 11 24 6 13 1017.7 - 0.0
28/12:30pm 26.6 23.4 5.0 25 11.0 E 11 17 6 9 1018.3 - 0.0
28/12:00pm 25.1 21.6 5.3 28 10.0 E 13 24 7 13 1018.8 1018.8 0.0
28/11:30am 23.3 20.2 5.7 32 8.9 E 11 17 6 9 1019.2 - 0.0
28/11:00am 22.3 20.0 7.3 38 7.8 E 9 13 5 7 1019.7 - 0.0
28/10:30am 21.4 19.8 8.7 44 6.7 E 7 15 4 8 1020.1 - 0.0
28/10:00am 19.1 17.2 9.0 52 5.3 ENE 9 15 5 8 1020.3 - 0.0
28/09:30am 18.1 16.2 8.9 55 4.8 E 9 13 5 7 1020.8 - 0.0
28/09:00am 16.6 15.2 8.8 60 4.0 S 6 11 3 6 1021.3 1021.2 0.0
28/08:30am 16.0 13.6 8.7 62 3.7 S 11 13 6 7 1021.4 - 0.0
28/08:00am 15.4 13.7 10.0 70 2.8 S 9 13 5 7 1021.5 - 0.0
28/07:30am 15.1 13.5 10.1 72 2.6 SW 9 13 5 7 1021.2 - 0.0
28/07:00am 14.1 13.1 10.9 81 1.7 SW 7 9 4 5 1021.0 - 0.0
28/06:30am 13.0 11.5 10.5 85 1.3 SW 9 11 5 6 1020.8 - 0.0
28/06:00am 12.8 11.0 10.7 87 1.1 WSW 11 13 6 7 1020.6 1020.6 0.0
28/05:30am 13.1 11.3 10.8 86 1.2 WSW 11 13 6 7 1020.6 - 0.0
28/05:00am 13.7 12.4 11.2 85 1.3 SW 9 13 5 7 1020.3 - 0.0
28/04:30am 14.6 13.4 11.7 83 1.6 SW 9 13 5 7 1020.1 - 0.0
28/04:00am 14.7 13.5 11.7 82 1.6 SW 9 13 5 7 1019.9 - 0.0
28/03:30am 14.7 13.5 11.7 82 1.6 SW 9 13 5 7 1020.0 - 0.0
28/03:00am 14.7 13.1 11.7 82 1.6 SW 11 13 6 7 1020.1 1020.1 0.0
28/02:30am 14.4 13.2 11.6 83 1.5 WSW 9 13 5 7 1020.3 - 0.0
28/02:00am 14.1 12.8 11.3 83 1.5 WSW 9 15 5 8 1020.5 - 0.0
28/01:30am 13.6 11.9 11.1 85 1.3 WSW 11 15 6 8 1020.6 - 0.0
28/01:00am 13.2 12.1 10.7 85 1.3 WSW 7 9 4 5 1021.0 - 0.0
28/12:30am 13.3 11.8 10.7 84 1.4 WSW 9 11 5 6 1021.4 - 0.0
28/12:00am 12.6 10.6 10.1 85 1.3 WSW 11 13 6 7 1021.7 1021.6 0.0
 
Date/Time
CDT
Tmp

°C
App
Tmp
°C
Dew
Point
°C
Rel
Hum
%
Delta-T

°C
Wind Press
QNH
hPa
Press
MSL
hPa
Rain
since
9 am
mm
Dir
 
Spd
km/h
Gust
km/h
Spd
kts
Gust
kts
27/11:30pm 12.5 10.4 9.7 83 1.4 WSW 11 13 6 7 1022.0 - 0.0
27/11:00pm 12.4 10.3 9.6 83 1.4 WSW 11 13 6 7 1022.2 - 0.0
27/10:30pm 12.8 10.7 9.6 81 1.6 WSW 11 13 6 7 1022.3 - 0.0
27/10:00pm 12.9 10.7 9.5 80 1.7 SW 11 13 6 7 1022.6 - 0.0
27/09:30pm 13.1 10.9 9.2 77 2.0 SW 11 13 6 7 1022.6 - 0.0
27/09:00pm 13.6 12.1 9.1 74 2.3 SW 7 11 4 6 1022.7 1022.6 0.0
27/08:30pm 14.6 12.0 9.4 71 2.7 SSW 13 15 7 8 1022.7 - 0.0
27/08:00pm 15.6 12.2 9.3 66 3.3 SSW 17 24 9 13 1022.6 - 0.0
27/07:30pm 16.5 12.5 9.0 61 3.9 S 20 26 11 14 1022.4 - 0.0
27/07:00pm 17.3 12.5 9.0 58 4.3 S 24 32 13 17 1022.1 - 0.0
27/06:30pm 17.9 12.6 8.5 54 4.9 SSW 26 35 14 19 1021.8 - 0.0
27/06:00pm 18.9 14.0 8.6 51 5.3 S 24 32 13 17 1021.9 1021.8 0.0
27/05:30pm 19.5 14.7 8.8 50 5.6 S 24 33 13 18 1022.0 - 0.0
27/05:00pm 19.8 14.5 8.5 48 5.9 S 26 35 14 19 1021.9 - 0.0
27/04:30pm 20.4 15.4 8.1 45 6.4 S 24 35 13 19 1022.0 - 0.0
27/04:00pm 21.4 16.6 9.0 45 6.6 SSW 24 33 13 18 1022.2 - 0.0
27/03:30pm 21.2 16.7 8.5 44 6.7 S 22 32 12 17 1022.2 - 0.0
27/03:00pm 22.0 17.1 8.5 42 7.1 S 24 33 13 18 1022.3 1022.2 0.0
27/02:30pm 22.4 17.8 8.1 40 7.5 SSE 22 32 12 17 1022.4 - 0.0
27/02:00pm 22.0 18.5 7.0 38 7.7 S 15 26 8 14 1022.7 - 0.0
27/01:30pm 22.1 19.6 8.2 41 7.3 S 11 22 6 12 1023.1 - 0.0
27/01:00pm 20.8 18.2 7.8 43 6.7 SE 11 20 6 11 1023.5 - 0.0
27/12:30pm 20.3 17.1 8.3 46 6.3 SSE 15 24 8 13 1023.6 - 0.0
27/12:00pm 20.1 17.1 9.1 49 5.8 SE 15 26 8 14 1023.9 1023.8 0.0
27/11:30am 19.0 16.3 8.9 52 5.3 SE 13 26 7 14 1024.2 - 0.0
27/11:00am 18.6 16.0 9.4 55 4.9 E 13 22 7 12 1024.5 - 0.0
27/10:30am 17.6 15.2 10.0 61 4.0 SSE 13 20 7 11 1024.7 - 0.0
27/10:00am 17.5 15.0 9.7 60 4.1 SE 13 20 7 11 1024.9 - 0.0
27/09:30am 16.4 13.8 9.3 63 3.7 ESE 13 19 7 10 1025.3 - 0.0
27/09:00am 15.8 14.0 9.5 66 3.3 ESE 9 17 5 9 1025.4 1025.3 0.0
27/08:30am 14.5 12.7 9.3 71 2.7 ESE 9 15 5 8 1025.5 - 0.0
27/08:00am 14.0 12.1 9.2 73 2.5 ESE 9 13 5 7 1025.5 - 0.0
27/07:30am 13.7 11.5 9.2 74 2.3 ESE 11 17 6 9 1025.3 - 0.0
27/07:00am 13.1 10.7 8.6 74 2.3 ESE 11 15 6 8 1025.0 - 0.0
27/06:30am 12.9 10.4 8.4 74 2.2 ESE 11 13 6 7 1024.9 - 0.0
27/06:00am 13.2 11.5 8.3 72 2.4 ESE 7 11 4 6 1024.7 1024.6 0.0
27/05:30am 13.1 10.9 8.0 71 2.5 ESE 9 11 5 6 1024.4 - 0.0
27/05:00am 13.4 10.8 7.8 69 2.8 ESE 11 19 6 10 1024.1 - 0.0
27/04:30am 13.8 10.8 7.8 67 3.0 ESE 13 20 7 11 1023.9 - 0.0
27/04:00am 13.8 11.3 8.2 69 2.8 S 11 17 6 9 1023.8 - 0.0
27/03:30am 12.5 11.9 8.8 78 1.9 SSW 2 7 1 4 1023.7 - 0.0
27/03:00am 11.8 10.1 8.5 80 1.6 SSW 7 9 4 5 1023.8 1023.7 0.0
27/02:30am 13.0 11.4 10.2 83 1.4 SSW 9 11 5 6 1023.9 - 0.0
27/02:00am 14.1 12.4 11.1 82 1.6 SW 11 13 6 7 1023.8 - 0.0
27/01:30am 14.7 12.6 11.3 80 1.8 SSW 13 15 7 8 1024.0 - 0.0
27/01:00am 14.9 13.6 11.3 79 1.9 SSW 9 13 5 7 1024.0 - 0.0
27/12:30am 14.8 13.0 11.0 78 2.0 SSW 11 13 6 7 1024.1 - 0.0
27/12:00am 14.6 12.8 11.0 79 1.9 SSW 11 15 6 8 1024.3 1024.2 0.0
 
Date/Time
CDT
Tmp

°C
App
Tmp
°C
Dew
Point
°C
Rel
Hum
%
Delta-T

°C
Wind Press
QNH
hPa
Press
MSL
hPa
Rain
since
9 am
mm
Dir
 
Spd
km/h
Gust
km/h
Spd
kts
Gust
kts
26/11:30pm 14.2 12.3 10.6 79 1.9 SSW 11 15 6 8 1024.4 - 0.0
26/11:00pm 14.1 12.3 10.7 80 1.8 SSW 11 13 6 7 1024.4 - 0.0
26/10:30pm 14.4 11.7 10.4 77 2.1 S 15 19 8 10 1024.3 - 0.0
26/10:00pm 15.4 13.1 10.6 73 2.5 S 13 17 7 9 1024.2 - 0.0
26/09:30pm 15.4 13.1 10.4 72 2.6 S 13 17 7 9 1024.1 - 0.0
26/09:00pm 15.7 12.7 10.5 71 2.7 S 17 22 9 12 1023.9 1023.8 0.0
26/08:30pm 15.9 12.8 10.4 70 2.9 S 17 26 9 14 1023.6 - 0.0
26/08:00pm 16.0 12.4 9.9 67 3.2 S 19 26 10 14 1023.6 - 0.0
26/07:30pm 16.5 12.9 9.7 64 3.6 S 19 26 10 14 1023.4 - 0.0
26/07:00pm 16.6 12.0 9.5 63 3.7 S 24 32 13 17 1023.2 - 0.0
26/06:30pm 18.1 13.1 9.5 57 4.5 S 26 33 14 18 1022.8 - 0.0
26/06:00pm 17.7 13.0 9.1 57 4.5 SSE 24 33 13 18 1022.6 1022.5 0.0
26/05:30pm 18.5 13.3 8.7 53 5.1 S 26 35 14 19 1022.5 - 0.0
26/05:00pm 18.8 13.9 8.5 51 5.3 S 24 33 13 18 1022.5 - 0.0
26/04:30pm 17.7 12.8 8.6 55 4.7 S 24 35 13 19 1022.6 - 0.0
26/04:00pm 19.2 13.9 8.5 50 5.6 S 26 43 14 23 1022.6 - 0.0
26/03:30pm 18.8 13.4 7.9 49 5.6 S 26 39 14 21 1022.7 - 0.0
26/03:00pm 19.9 14.6 8.6 48 5.9 S 26 43 14 23 1022.8 1022.7 0.0
26/02:30pm 19.4 13.7 6.8 44 6.4 S 26 32 14 17 1023.0 - 0.0
26/02:00pm 19.3 14.8 6.1 42 6.6 SSE 19 33 10 18 1023.2 - 0.0
26/01:30pm 20.3 15.9 7.3 43 6.7 S 20 30 11 16 1023.5 - 0.0
26/01:00pm 18.9 14.5 6.7 45 6.1 SSE 19 30 10 16 1023.7 - 0.0
26/12:30pm 18.8 13.9 6.9 46 6.0 SSE 22 26 12 14 1023.9 - 0.0
26/12:00pm 18.5 14.7 7.6 49 5.5 S 17 26 9 14 1024.2 1024.1 0.0
26/11:30am 18.7 15.1 6.9 46 5.9 SSE 15 24 8 13 1024.3 - 0.0
26/11:00am 18.9 16.0 6.7 45 6.1 SE 11 20 6 11 1024.4 - 0.0
26/10:30am 18.6 15.8 6.8 46 5.9 SSE 11 19 6 10 1024.3 - 0.0
26/10:00am 17.8 14.6 6.7 48 5.5 S 13 20 7 11 1024.3 - 0.0
26/09:30am 16.2 13.8 6.9 54 4.6 SSE 9 13 5 7 1024.2 - 0.0
26/09:00am 16.3 13.8 6.7 53 4.7 ESE 9 15 5 8 1024.1 1024.0 0.0
26/08:30am 15.2 13.4 8.0 62 3.6 ESE 7 11 4 6 1023.8 - 0.0
26/08:00am 14.6 13.0 7.9 64 3.3 SSW 6 9 3 5 1023.5 - 0.0
26/07:30am 13.0 11.8 8.1 72 2.4 SSW 4 6 2 3 1023.3 - 0.0
26/07:00am 11.3 9.3 7.2 76 2.0 SSW 7 9 4 5 1022.9 - 0.0
26/06:30am 9.7 7.5 6.4 80 1.5 SSW 7 9 4 5 1022.7 - 0.0
26/06:00am 8.6 5.6 5.9 83 1.2 SSW 11 13 6 7 1022.4 1022.3 0.0
26/05:30am 8.6 7.2 5.5 81 1.4 SSW 2 7 1 4 1022.1 - 0.0
26/05:00am 8.5 6.2 5.6 82 1.3 SSW 7 9 4 5 1021.9 - 0.0
26/04:30am 8.5 5.8 5.6 82 1.3 SSW 9 13 5 7 1021.9 - 0.0
26/04:00am 8.7 5.9 5.1 78 1.6 SSW 9 11 5 6 1021.8 - 0.0
26/03:30am 9.0 6.3 5.7 80 1.5 SSW 9 11 5 6 1021.9 - 0.0
26/03:00am 8.8 6.1 5.7 81 1.4 SSW 9 11 5 6 1021.9 1021.8 0.0
26/02:30am 8.6 6.4 5.4 80 1.4 SSW 6 7 3 4 1022.0 - 0.0
26/02:00am 8.7 6.5 5.3 79 1.5 SSW 6 7 3 4 1022.2 - 0.0
26/01:30am 9.9 7.3 6.2 78 1.7 SSW 9 11 5 6 1022.5 - 0.0
26/01:00am 9.3 7.0 5.5 77 1.7 SSW 7 9 4 5 1022.7 - 0.0
26/12:30am 10.6 8.0 6.2 74 2.1 SSW 9 11 5 6 1023.0 - 0.0
26/12:00am 11.1 8.2 6.6 74 2.1 SSW 11 11 6 6 1023.1 1023.0 0.0
 
Date/Time
CDT
Tmp

°C
App
Tmp
°C
Dew
Point
°C
Rel
Hum
%
Delta-T

°C
Wind Press
QNH
hPa
Press
MSL
hPa
Rain
since
9 am
mm
Dir
 
Spd
km/h
Gust
km/h
Spd
kts
Gust
kts
25/11:30pm 11.5 9.1 7.0 74 2.2 SSW 9 11 5 6 1023.3 - 0.0
25/11:00pm 12.0 9.6 7.1 72 2.4 SSW 9 11 5 6 1023.5 - 0.0
25/10:30pm 12.5 10.2 7.6 72 2.4 SSW 9 11 5 6 1023.7 - 0.0
25/10:00pm 12.2 9.8 6.9 70 2.5 SSW 9 9 5 5 1023.7 - 0.0
25/09:30pm 12.4 10.4 7.3 71 2.5 SSW 7 9 4 5 1023.6 - 0.0
25/09:00pm 13.1 11.3 7.1 67 2.9 SSW 6 9 3 5 1023.4 1023.3 0.0
25/08:30pm 14.0 11.3 7.5 65 3.2 SSW 11 15 6 8 1023.4 - 0.0
25/08:00pm 14.7 10.8 7.3 61 3.6 S 17 20 9 11 1022.9 - 0.0
25/07:30pm 15.8 11.4 7.6 58 4.1 SSW 20 28 11 15 1022.6 - 0.0

Latest Capital City Observations: Canberra | Sydney | Melbourne | Brisbane | Adelaide | Perth | Hobart | Darwin

Other Formats:

Comma delimited format used in spreadsheet applications
http://www.bom.gov.au/fwo/IDS60901/IDS60901.94814.axf

JavaScript Object Notation format (JSON) in row-major order
http://www.bom.gov.au/fwo/IDS60901/IDS60901.94814.json